Shinsei Maru — JD2188 — position and weather

sailwx.info

Track history (hours):
 
Tides and Currents Weather Stations Pressure Air Temp Water Temp Dewpoint Dewpoint Depression Visibility Wind Speed Wind Dir Waves Ship Positions

Shinsei Maru

Last reported at 2017-May-26 11:56 UTC. Time now 2017-May-26 22:46 UTC.
Position N 34°54' E 139°24'.

Length 104 m; draft 6.5 m.

Type: Tanker. MMSI: 431301775.

Date/timePositionNaut miles runAvg speedWind from/ knotsBaromVisibWave heightAir tempDewpointWater temp
2017-May-26 11:56N 34°54' E 139°24'612.8
2017-May-26 11:29N 34°58' E 139°30'612.6
2017-May-26 11:00N 35°02' E 139°35'612.8
2017-May-26 10:30N 35°06' E 139°41'613.1
2017-May-26 10:00N 35°11' E 139°45'611.9
2017-May-26 09:30N 35°17' E 139°45'612.0
2017-May-26 09:00N 35°23' E 139°42'713.1
2017-May-26 08:30N 35°28' E 139°48'613.0
2017-May-26 08:01N 35°31' E 139°55'610.9
2017-May-26 07:27N 35°31' E 140°02'0 0.2
2017-May-26 06:55N 35°31' E 140°03'0 0.0
2017-May-26 06:28N 35°31' E 140°03'0 0.0
2017-May-26 05:49N 35°31' E 140°03'0 0.0
2017-May-26 05:25N 35°31' E 140°03'0 0.1
2017-May-26 04:58N 35°31' E 140°02'0 0.0
2017-May-25 23:46N 35°31' E 140°02'0 0.0
2017-May-25 23:22N 35°31' E 140°02'0 0.1
2017-May-25 21:24N 35°31' E 140°02'1 0.7
2017-May-25 19:52N 35°32' E 140°02'0 0.0
2017-May-25 19:22N 35°32' E 140°02'0 0.0
2017-May-25 18:52N 35°32' E 140°02'0 0.0
2017-May-25 17:55N 35°32' E 140°02'0 0.0
2017-May-25 17:16N 35°32' E 140°02'0 0.0
2017-May-25 16:58N 35°32' E 140°02'0 0.0
2017-May-25 16:25N 35°32' E 140°02'0 0.0
2017-May-25 15:58N 35°32' E 140°02'0 0.0
2017-May-25 12:16N 35°32' E 140°02'0 0.0
2017-May-24 22:19N 35°32' E 140°02'3 8.1
2017-May-24 22:00N 35°31' E 139°59'613.0
2017-May-24 21:31N 35°28' E 139°51'612.9
2017-May-24 21:00N 35°23' E 139°46'611.3
2017-May-24 20:30N 35°18' E 139°45'611.1
2017-May-24 20:00N 35°13' E 139°47'712.9
2017-May-24 19:30N 35°06' E 139°45'713.2
2017-May-24 19:00N 35°02' E 139°39'713.7
2017-May-24 18:30N 34°57' E 139°33'713.6
2017-May-24 18:00N 34°53' E 139°26'223 7.1
2017-May-23 10:26N 34°02' E 135°02'512.3
2017-May-23 10:00N 34°07' E 135°04'3 5.4
2017-May-23 09:27N 34°07' E 135°08'0 0.0
2017-May-23 08:57N 34°07' E 135°08'0 0.0
2017-May-23 08:27N 34°07' E 135°08'0 0.0
2017-May-23 07:57N 34°07' E 135°08'0 0.0
2017-May-23 07:27N 34°07' E 135°08'0 0.0
2017-May-23 06:57N 34°07' E 135°08'0 0.0
2017-May-23 06:21N 34°07' E 135°08'0 0.0
2017-May-23 05:57N 34°07' E 135°08'0 0.0
2017-May-23 05:27N 34°07' E 135°08'0 0.0
2017-May-23 04:57N 34°07' E 135°08'0 0.0
2017-May-23 04:27N 34°07' E 135°08'0 0.0
2017-May-23 03:57N 34°07' E 135°08'0 0.1
2017-May-23 03:04N 34°07' E 135°08'1 1.7
2017-May-23 02:39N 34°08' E 135°07'1 3.2
2017-May-23 02:27N 34°08' E 135°07'0 0.0
2017-May-23 01:45N 34°08' E 135°07'0 0.2
2017-May-23 01:30N 34°08' E 135°07'0 0.0
2017-May-23 00:51N 34°08' E 135°07'0 0.0
2017-May-23 00:27N 34°08' E 135°07'0 0.0
2017-May-23 00:00N 34°08' E 135°07'0 0.1
2017-May-22 23:18N 34°08' E 135°07'0 0.0
2017-May-22 23:00N 34°08' E 135°07'0 0.0
2017-May-22 22:30N 34°08' E 135°07'0 0.0
2017-May-22 22:00N 34°08' E 135°07'0 0.0
2017-May-22 21:30N 34°08' E 135°07'0 0.1
2017-May-22 20:57N 34°08' E 135°07'0 0.0
2017-May-22 20:27N 34°08' E 135°07'0 0.0
2017-May-22 20:00N 34°08' E 135°07'0 0.0
2017-May-22 19:30N 34°08' E 135°07'0 0.0
2017-May-22 19:00N 34°08' E 135°07'0 0.0
2017-May-22 18:30N 34°08' E 135°07'0 0.0
2017-May-22 18:00N 34°08' E 135°07'0 0.0
2017-May-22 17:30N 34°08' E 135°07'0 0.0
2017-May-22 17:00N 34°08' E 135°07'0 0.0
2017-May-22 16:30N 34°08' E 135°07'0 0.0
2017-May-22 16:00N 34°08' E 135°07'0 0.0
2017-May-22 15:30N 34°08' E 135°07'0 0.0
2017-May-22 14:54N 34°08' E 135°07'0 0.0
2017-May-22 13:57N 34°08' E 135°07'0 0.0
2017-May-22 13:30N 34°08' E 135°07'0 0.0
2017-May-22 13:00N 34°08' E 135°07'0 0.0
2017-May-22 12:30N 34°08' E 135°07'0 0.0
2017-May-22 12:00N 34°08' E 135°07'0 0.0
2017-May-22 11:30N 34°08' E 135°07'0 0.0
2017-May-22 11:00N 34°08' E 135°07'0 0.0
2017-May-22 10:30N 34°08' E 135°07'0 0.1
2017-May-22 10:00N 34°08' E 135°07'2 4.2
2017-May-22 09:30N 34°08' E 135°04'18010.8
2017-May-21 16:51N 34°31' E 138°40'2413.6
2017-May-21 15:04N 34°40' E 139°08'113.6
2017-May-21 15:00N 34°41' E 139°08'1313.2
2017-May-21 14:00N 34°50' E 139°19'712.9
2017-May-21 13:30N 34°54' E 139°26'612.7
2017-May-21 13:00N 34°59' E 139°31'612.8
2017-May-21 12:30N 35°03' E 139°37'713.2
2017-May-21 12:00N 35°07' E 139°43'612.8
2017-May-21 11:30N 35°13' E 139°46'612.7
2017-May-21 11:00N 35°19' E 139°43'612.1
2017-May-21 10:30N 35°25' E 139°44'611.6
2017-May-21 10:00N 35°30' E 139°48'3 5.7
2017-May-21 09:30N 35°32' E 139°46'0 0.0
2017-May-21 08:59N 35°32' E 139°46'0 0.0
2017-May-21 08:30N 35°32' E 139°46'0 0.0
2017-May-21 08:00N 35°32' E 139°46'0 0.0
2017-May-21 07:30N 35°32' E 139°46'0 0.0
2017-May-21 07:00N 35°32' E 139°46'0 0.0
2017-May-21 06:30N 35°32' E 139°46'0 0.0
2017-May-21 06:00N 35°32' E 139°46'0 0.0
2017-May-21 05:30N 35°32' E 139°46'0 0.7
2017-May-21 05:00N 35°31' E 139°46'4 7.7
2017-May-21 04:31N 35°29' E 139°42'4 8.9
2017-May-21 04:01N 35°27' E 139°47'510.8
2017-May-21 03:30N 35°30' E 139°53'713.1
2017-May-21 03:00N 35°31' E 140°01'1 0.3
2017-May-20 22:00N 35°31' E 140°02'3 5.3
2017-May-20 21:31N 35°32' E 139°59'1 1.7
2017-May-20 21:00N 35°32' E 139°58'0 0.0
2017-May-20 20:30N 35°32' E 139°58'0 0.0
2017-May-20 20:00N 35°32' E 139°58'0 0.0
2017-May-20 19:30N 35°32' E 139°58'0 0.0
2017-May-20 19:00N 35°32' E 139°58'0 0.0
2017-May-20 18:30N 35°32' E 139°58'0 0.0
2017-May-20 17:57N 35°32' E 139°58'0 0.0
2017-May-20 17:24N 35°32' E 139°58'0 0.0
2017-May-20 17:00N 35°32' E 139°58'0 0.0
2017-May-20 16:30N 35°32' E 139°58'0 0.1
2017-May-20 15:18N 35°32' E 139°58'0 0.0
2017-May-20 14:48N 35°32' E 139°58'0 0.0
2017-May-20 12:09N 35°32' E 139°58'0 0.1
2017-May-20 12:00N 35°32' E 139°58'5 9.9
2017-May-20 11:30N 35°30' E 139°53'5 8.8
2017-May-20 10:56N 35°31' E 139°46'0 0.0
2017-May-20 10:29N 35°31' E 139°46'0 0.0
2017-May-20 09:59N 35°31' E 139°46'0 0.0
2017-May-20 09:29N 35°31' E 139°46'0 0.0
2017-May-20 08:56N 35°31' E 139°46'0 0.0
2017-May-20 08:29N 35°31' E 139°46'0 0.0
2017-May-20 07:59N 35°31' E 139°46'0 0.0
2017-May-20 07:29N 35°31' E 139°46'0 0.1
2017-May-20 06:59N 35°31' E 139°46'0 0.1
2017-May-20 06:29N 35°31' E 139°46'0 0.1
2017-May-20 05:59N 35°31' E 139°46'0 0.1
2017-May-20 05:29N 35°31' E 139°46'0 0.0
2017-May-20 04:59N 35°31' E 139°46'0 0.1
2017-May-20 04:29N 35°31' E 139°46'0 0.1
2017-May-20 03:59N 35°31' E 139°46'0 0.0
2017-May-20 03:29N 35°31' E 139°46'1 2.4
2017-May-20 03:00N 35°30' E 139°45'3 6.7
2017-May-20 02:30N 35°27' E 139°44'4 7.1
2017-May-20 01:56N 35°29' E 139°48'0 0.0
2017-May-20 01:29N 35°29' E 139°48'0 0.0
2017-May-20 00:59N 35°29' E 139°48'0 0.0
2017-May-20 00:29N 35°29' E 139°48'0 0.0
2017-May-19 23:56N 35°29' E 139°48'0 0.1
2017-May-19 23:29N 35°29' E 139°48'0 0.0
2017-May-19 22:56N 35°29' E 139°48'0 0.0
2017-May-19 22:29N 35°29' E 139°48'0 0.0
2017-May-19 21:56N 35°29' E 139°48'0 0.0
2017-May-19 21:29N 35°29' E 139°48'0 0.0
2017-May-19 20:59N 35°29' E 139°48'0 0.0
2017-May-19 20:29N 35°29' E 139°48'0 0.0
2017-May-19 19:59N 35°29' E 139°48'0 0.0
2017-May-19 19:29N 35°29' E 139°48'0 0.0
2017-May-19 18:59N 35°29' E 139°48'0 0.3
2017-May-19 18:31N 35°29' E 139°48'4 7.1
2017-May-19 18:00N 35°30' E 139°52'712.7
2017-May-19 17:28N 35°31' E 140°00'2 3.3
2017-May-19 16:57N 35°31' E 140°02'0 0.0
2017-May-19 16:30N 35°31' E 140°02'0 0.0
2017-May-19 15:57N 35°31' E 140°02'0 0.1
2017-May-19 15:21N 35°31' E 140°03'0 0.1
2017-May-19 14:57N 35°31' E 140°02'0 0.0
2017-May-19 13:57N 35°31' E 140°02'0 0.0
2017-May-19 13:30N 35°31' E 140°02'0 0.1
2017-May-19 13:00N 35°31' E 140°03'0 0.1
2017-May-19 12:27N 35°31' E 140°02'0 0.1
2017-May-19 11:33N 35°31' E 140°03'0 0.0
2017-May-19 11:12N 35°31' E 140°03'0 0.0
2017-May-19 11:00N 35°31' E 140°03'0 0.0
2017-May-19 09:06N 35°31' E 140°02'0 0.0
2017-May-19 08:48N 35°31' E 140°02'0 0.2
2017-May-19 08:30N 35°31' E 140°03'0 0.1
2017-May-19 08:00N 35°31' E 140°02'0 0.2
2017-May-19 07:26N 35°31' E 140°02'1 2.2
2017-May-19 06:59N 35°31' E 140°01'1 0.3
2017-May-19 05:17N 35°32' E 140°01'2 8.7
2017-May-19 05:00N 35°31' E 139°58'612.6
2017-May-19 04:30N 35°30' E 139°51'4 6.6
2017-May-19 03:59N 35°31' E 139°46'0 0.0
2017-May-19 03:29N 35°31' E 139°46'0 0.0
2017-May-19 02:59N 35°31' E 139°46'0 0.0
2017-May-19 02:29N 35°31' E 139°46'0 0.1
2017-May-19 01:59N 35°31' E 139°46'0 0.0
2017-May-19 01:29N 35°31' E 139°46'0 0.1
2017-May-19 00:56N 35°31' E 139°46'0 0.0
2017-May-19 00:29N 35°31' E 139°46'0 0.1
2017-May-18 23:59N 35°31' E 139°46'3 6.0
2017-May-18 23:30N 35°29' E 139°43'3 5.5
2017-May-18 23:00N 35°28' E 139°46'2 3.7
2017-May-18 22:30N 35°29' E 139°48'0 0.0
2017-May-18 22:00N 35°29' E 139°48'0 0.0
2017-May-18 21:30N 35°29' E 139°48'0 0.0
2017-May-18 21:00N 35°29' E 139°48'0 0.0
2017-May-18 20:18N 35°29' E 139°48'0 0.0
2017-May-18 19:51N 35°29' E 139°48'0 0.0
2017-May-18 19:30N 35°29' E 139°48'0 0.0
2017-May-18 19:00N 35°29' E 139°48'0 0.0
2017-May-18 18:30N 35°29' E 139°48'0 0.0
2017-May-18 18:00N 35°29' E 139°48'0 0.0
2017-May-18 17:30N 35°29' E 139°48'0 0.0
2017-May-18 16:54N 35°29' E 139°48'0 0.0
2017-May-18 16:27N 35°29' E 139°48'0 0.0
2017-May-18 16:00N 35°29' E 139°48'0 0.0
2017-May-18 15:30N 35°29' E 139°48'0 0.0
2017-May-18 15:00N 35°29' E 139°48'0 0.1
2017-May-18 14:00N 35°29' E 139°48'0 0.0
2017-May-18 13:30N 35°29' E 139°48'0 0.0
2017-May-18 13:00N 35°29' E 139°48'0 0.0
2017-May-18 12:30N 35°29' E 139°48'0 0.0
2017-May-18 12:00N 35°29' E 139°48'0 0.0
2017-May-18 11:27N 35°29' E 139°48'0 0.0
2017-May-18 11:00N 35°29' E 139°48'0 0.0
2017-May-18 10:30N 35°29' E 139°48'0 0.0
2017-May-18 10:00N 35°29' E 139°48'0 0.0
2017-May-18 09:30N 35°29' E 139°48'0 0.1
2017-May-18 09:00N 35°29' E 139°48'4 8.6
2017-May-18 08:30N 35°30' E 139°53'713.4
2017-May-18 08:00N 35°31' E 140°01'1 2.9
2017-May-18 07:31N 35°31' E 140°03'0 0.0
2017-May-18 07:01N 35°31' E 140°03'0 0.0
2017-May-18 06:19N 35°31' E 140°03'0 0.0
2017-May-18 05:55N 35°31' E 140°03'0 0.1
2017-May-18 05:25N 35°31' E 140°02'0 0.0
2017-May-18 05:01N 35°31' E 140°02'0 0.0
2017-May-18 04:25N 35°31' E 140°02'0 0.0
2017-May-18 04:01N 35°31' E 140°02'0 0.0
2017-May-18 03:31N 35°31' E 140°02'0 0.3
2017-May-18 03:00N 35°31' E 140°02'1 1.9
2017-May-18 02:30N 35°31' E 140°01'2 0.6
2017-May-17 23:42N 35°31' E 139°59'0 0.0
2017-May-17 22:51N 35°31' E 139°59'0 0.0
2017-May-17 22:18N 35°31' E 139°59'0 0.0
2017-May-17 22:00N 35°31' E 139°59'0 0.0
2017-May-17 19:12N 35°31' E 139°59'0 0.0
2017-May-17 19:00N 35°31' E 139°59'0 0.0
2017-May-17 18:24N 35°31' E 139°59'0 0.0
2017-May-17 17:54N 35°31' E 139°59'0 0.0
2017-May-17 16:57N 35°31' E 139°59'0 0.0
2017-May-17 07:51N 35°31' E 139°59'0 0.0
2017-May-17 07:30N 35°31' E 139°59'0 0.0
2017-May-17 06:51N 35°31' E 139°59'0 0.0
2017-May-17 06:27N 35°31' E 139°59'0 0.0
2017-May-17 05:57N 35°31' E 139°59'0 0.1
2017-May-17 05:24N 35°31' E 139°59'0 0.0
2017-May-17 05:00N 35°31' E 139°59'0 0.2
2017-May-17 04:29N 35°31' E 139°59'5 9.9
2017-May-17 04:00N 35°29' E 139°54'612.8
2017-May-17 03:30N 35°25' E 139°48'612.5
2017-May-17 03:00N 35°20' E 139°44'611.9
2017-May-17 02:30N 35°14' E 139°47'  
Track history (hours):
 
Tides and Currents Weather Stations Pressure Air Temp Water Temp Dewpoint Dewpoint Depression Visibility Wind Speed Wind Dir Waves Ship Positions

Shinsei Maru

Last reported at 2017-May-26 11:56 UTC. Time now 2017-May-26 22:46 UTC.
Position N 34°54' E 139°24'.

Length 104 m; draft 6.5 m.

Type: Tanker. MMSI: 431301775.

Date/timePositionNaut miles runAvg speedWind from/ knotsBaromVisibWave heightAir tempDewpointWater temp
2017-May-26 11:56N 34°54' E 139°24'612.8
2017-May-26 11:29N 34°58' E 139°30'612.6
2017-May-26 11:00N 35°02' E 139°35'612.8
2017-May-26 10:30N 35°06' E 139°41'613.1
2017-May-26 10:00N 35°11' E 139°45'611.9
2017-May-26 09:30N 35°17' E 139°45'612.0
2017-May-26 09:00N 35°23' E 139°42'713.1
2017-May-26 08:30N 35°28' E 139°48'613.0
2017-May-26 08:01N 35°31' E 139°55'610.9
2017-May-26 07:27N 35°31' E 140°02'0 0.2
2017-May-26 06:55N 35°31' E 140°03'0 0.0
2017-May-26 06:28N 35°31' E 140°03'0 0.0
2017-May-26 05:49N 35°31' E 140°03'0 0.0
2017-May-26 05:25N 35°31' E 140°03'0 0.1
2017-May-26 04:58N 35°31' E 140°02'0 0.0
2017-May-25 23:46N 35°31' E 140°02'0 0.0
2017-May-25 23:22N 35°31' E 140°02'0 0.1
2017-May-25 21:24N 35°31' E 140°02'1 0.7
2017-May-25 19:52N 35°32' E 140°02'0 0.0
2017-May-25 19:22N 35°32' E 140°02'0 0.0
2017-May-25 18:52N 35°32' E 140°02'0 0.0
2017-May-25 17:55N 35°32' E 140°02'0 0.0
2017-May-25 17:16N 35°32' E 140°02'0 0.0
2017-May-25 16:58N 35°32' E 140°02'0 0.0
2017-May-25 16:25N 35°32' E 140°02'0 0.0
2017-May-25 15:58N 35°32' E 140°02'0 0.0
2017-May-25 12:16N 35°32' E 140°02'0 0.0
2017-May-24 22:19N 35°32' E 140°02'3 8.1
2017-May-24 22:00N 35°31' E 139°59'613.0
2017-May-24 21:31N 35°28' E 139°51'612.9
2017-May-24 21:00N 35°23' E 139°46'611.3
2017-May-24 20:30N 35°18' E 139°45'611.1
2017-May-24 20:00N 35°13' E 139°47'712.9
2017-May-24 19:30N 35°06' E 139°45'713.2
2017-May-24 19:00N 35°02' E 139°39'713.7
2017-May-24 18:30N 34°57' E 139°33'713.6
2017-May-24 18:00N 34°53' E 139°26'223 7.1
2017-May-23 10:26N 34°02' E 135°02'512.3
2017-May-23 10:00N 34°07' E 135°04'3 5.4
2017-May-23 09:27N 34°07' E 135°08'0 0.0
2017-May-23 08:57N 34°07' E 135°08'0 0.0
2017-May-23 08:27N 34°07' E 135°08'0 0.0
2017-May-23 07:57N 34°07' E 135°08'0 0.0
2017-May-23 07:27N 34°07' E 135°08'0 0.0
2017-May-23 06:57N 34°07' E 135°08'0 0.0
2017-May-23 06:21N 34°07' E 135°08'0 0.0
2017-May-23 05:57N 34°07' E 135°08'0 0.0
2017-May-23 05:27N 34°07' E 135°08'0 0.0
2017-May-23 04:57N 34°07' E 135°08'0 0.0
2017-May-23 04:27N 34°07' E 135°08'0 0.0
2017-May-23 03:57N 34°07' E 135°08'0 0.1
2017-May-23 03:04N 34°07' E 135°08'1 1.7
2017-May-23 02:39N 34°08' E 135°07'1 3.2
2017-May-23 02:27N 34°08' E 135°07'0 0.0
2017-May-23 01:45N 34°08' E 135°07'0 0.2
2017-May-23 01:30N 34°08' E 135°07'0 0.0
2017-May-23 00:51N 34°08' E 135°07'0 0.0
2017-May-23 00:27N 34°08' E 135°07'0 0.0
2017-May-23 00:00N 34°08' E 135°07'0 0.1
2017-May-22 23:18N 34°08' E 135°07'0 0.0
2017-May-22 23:00N 34°08' E 135°07'0 0.0
2017-May-22 22:30N 34°08' E 135°07'0 0.0
2017-May-22 22:00N 34°08' E 135°07'0 0.0
2017-May-22 21:30N 34°08' E 135°07'0 0.1
2017-May-22 20:57N 34°08' E 135°07'0 0.0
2017-May-22 20:27N 34°08' E 135°07'0 0.0
2017-May-22 20:00N 34°08' E 135°07'0 0.0
2017-May-22 19:30N 34°08' E 135°07'0 0.0
2017-May-22 19:00N 34°08' E 135°07'0 0.0
2017-May-22 18:30N 34°08' E 135°07'0 0.0
2017-May-22 18:00N 34°08' E 135°07'0 0.0
2017-May-22 17:30N 34°08' E 135°07'0 0.0
2017-May-22 17:00N 34°08' E 135°07'0 0.0
2017-May-22 16:30N 34°08' E 135°07'0 0.0
2017-May-22 16:00N 34°08' E 135°07'0 0.0
2017-May-22 15:30N 34°08' E 135°07'0 0.0
2017-May-22 14:54N 34°08' E 135°07'0 0.0
2017-May-22 13:57N 34°08' E 135°07'0 0.0
2017-May-22 13:30N 34°08' E 135°07'0 0.0
2017-May-22 13:00N 34°08' E 135°07'0 0.0
2017-May-22 12:30N 34°08' E 135°07'0 0.0
2017-May-22 12:00N 34°08' E 135°07'0 0.0
2017-May-22 11:30N 34°08' E 135°07'0 0.0
2017-May-22 11:00N 34°08' E 135°07'0 0.0
2017-May-22 10:30N 34°08' E 135°07'0 0.1
2017-May-22 10:00N 34°08' E 135°07'2 4.2
2017-May-22 09:30N 34°08' E 135°04'18010.8
2017-May-21 16:51N 34°31' E 138°40'2413.6
2017-May-21 15:04N 34°40' E 139°08'113.6
2017-May-21 15:00N 34°41' E 139°08'1313.2
2017-May-21 14:00N 34°50' E 139°19'712.9
2017-May-21 13:30N 34°54' E 139°26'612.7
2017-May-21 13:00N 34°59' E 139°31'612.8
2017-May-21 12:30N 35°03' E 139°37'713.2
2017-May-21 12:00N 35°07' E 139°43'612.8
2017-May-21 11:30N 35°13' E 139°46'612.7
2017-May-21 11:00N 35°19' E 139°43'612.1
2017-May-21 10:30N 35°25' E 139°44'611.6
2017-May-21 10:00N 35°30' E 139°48'3 5.7
2017-May-21 09:30N 35°32' E 139°46'0 0.0
2017-May-21 08:59N 35°32' E 139°46'0 0.0
2017-May-21 08:30N 35°32' E 139°46'0 0.0
2017-May-21 08:00N 35°32' E 139°46'0 0.0
2017-May-21 07:30N 35°32' E 139°46'0 0.0
2017-May-21 07:00N 35°32' E 139°46'0 0.0
2017-May-21 06:30N 35°32' E 139°46'0 0.0
2017-May-21 06:00N 35°32' E 139°46'0 0.0
2017-May-21 05:30N 35°32' E 139°46'0 0.7
2017-May-21 05:00N 35°31' E 139°46'4 7.7
2017-May-21 04:31N 35°29' E 139°42'4 8.9
2017-May-21 04:01N 35°27' E 139°47'510.8
2017-May-21 03:30N 35°30' E 139°53'713.1
2017-May-21 03:00N 35°31' E 140°01'1 0.3
2017-May-20 22:00N 35°31' E 140°02'3 5.3
2017-May-20 21:31N 35°32' E 139°59'1 1.7
2017-May-20 21:00N 35°32' E 139°58'0 0.0
2017-May-20 20:30N 35°32' E 139°58'0 0.0
2017-May-20 20:00N 35°32' E 139°58'0 0.0
2017-May-20 19:30N 35°32' E 139°58'0 0.0
2017-May-20 19:00N 35°32' E 139°58'0 0.0
2017-May-20 18:30N 35°32' E 139°58'0 0.0
2017-May-20 17:57N 35°32' E 139°58'0 0.0
2017-May-20 17:24N 35°32' E 139°58'0 0.0
2017-May-20 17:00N 35°32' E 139°58'0 0.0
2017-May-20 16:30N 35°32' E 139°58'0 0.1
2017-May-20 15:18N 35°32' E 139°58'0 0.0
2017-May-20 14:48N 35°32' E 139°58'0 0.0
2017-May-20 12:09N 35°32' E 139°58'0 0.1
2017-May-20 12:00N 35°32' E 139°58'5 9.9
2017-May-20 11:30N 35°30' E 139°53'5 8.8
2017-May-20 10:56N 35°31' E 139°46'0 0.0
2017-May-20 10:29N 35°31' E 139°46'0 0.0
2017-May-20 09:59N 35°31' E 139°46'0 0.0
2017-May-20 09:29N 35°31' E 139°46'0 0.0
2017-May-20 08:56N 35°31' E 139°46'0 0.0
2017-May-20 08:29N 35°31' E 139°46'0 0.0
2017-May-20 07:59N 35°31' E 139°46'0 0.0
2017-May-20 07:29N 35°31' E 139°46'0 0.1
2017-May-20 06:59N 35°31' E 139°46'0 0.1
2017-May-20 06:29N 35°31' E 139°46'0 0.1
2017-May-20 05:59N 35°31' E 139°46'0 0.1
2017-May-20 05:29N 35°31' E 139°46'0 0.0
2017-May-20 04:59N 35°31' E 139°46'0 0.1
2017-May-20 04:29N 35°31' E 139°46'0 0.1
2017-May-20 03:59N 35°31' E 139°46'0 0.0
2017-May-20 03:29N 35°31' E 139°46'1 2.4
2017-May-20 03:00N 35°30' E 139°45'3 6.7
2017-May-20 02:30N 35°27' E 139°44'4 7.1
2017-May-20 01:56N 35°29' E 139°48'0 0.0
2017-May-20 01:29N 35°29' E 139°48'0 0.0
2017-May-20 00:59N 35°29' E 139°48'0 0.0
2017-May-20 00:29N 35°29' E 139°48'0 0.0
2017-May-19 23:56N 35°29' E 139°48'0 0.1
2017-May-19 23:29N 35°29' E 139°48'0 0.0
2017-May-19 22:56N 35°29' E 139°48'0 0.0
2017-May-19 22:29N 35°29' E 139°48'0 0.0
2017-May-19 21:56N 35°29' E 139°48'0 0.0
2017-May-19 21:29N 35°29' E 139°48'0 0.0
2017-May-19 20:59N 35°29' E 139°48'0 0.0
2017-May-19 20:29N 35°29' E 139°48'0 0.0
2017-May-19 19:59N 35°29' E 139°48'0 0.0
2017-May-19 19:29N 35°29' E 139°48'0 0.0
2017-May-19 18:59N 35°29' E 139°48'0 0.3
2017-May-19 18:31N 35°29' E 139°48'4 7.1
2017-May-19 18:00N 35°30' E 139°52'712.7
2017-May-19 17:28N 35°31' E 140°00'2 3.3
2017-May-19 16:57N 35°31' E 140°02'0 0.0
2017-May-19 16:30N 35°31' E 140°02'0 0.0
2017-May-19 15:57N 35°31' E 140°02'0 0.1
2017-May-19 15:21N 35°31' E 140°03'0 0.1
2017-May-19 14:57N 35°31' E 140°02'0 0.0
2017-May-19 13:57N 35°31' E 140°02'0 0.0
2017-May-19 13:30N 35°31' E 140°02'0 0.1
2017-May-19 13:00N 35°31' E 140°03'0 0.1
2017-May-19 12:27N 35°31' E 140°02'0 0.1
2017-May-19 11:33N 35°31' E 140°03'0 0.0
2017-May-19 11:12N 35°31' E 140°03'0 0.0
2017-May-19 11:00N 35°31' E 140°03'0 0.0
2017-May-19 09:06N 35°31' E 140°02'0 0.0
2017-May-19 08:48N 35°31' E 140°02'0 0.2
2017-May-19 08:30N 35°31' E 140°03'0 0.1
2017-May-19 08:00N 35°31' E 140°02'0 0.2
2017-May-19 07:26N 35°31' E 140°02'1 2.2
2017-May-19 06:59N 35°31' E 140°01'1 0.3
2017-May-19 05:17N 35°32' E 140°01'2 8.7
2017-May-19 05:00N 35°31' E 139°58'612.6
2017-May-19 04:30N 35°30' E 139°51'4 6.6
2017-May-19 03:59N 35°31' E 139°46'0 0.0
2017-May-19 03:29N 35°31' E 139°46'0 0.0
2017-May-19 02:59N 35°31' E 139°46'0 0.0
2017-May-19 02:29N 35°31' E 139°46'0 0.1
2017-May-19 01:59N 35°31' E 139°46'0 0.0
2017-May-19 01:29N 35°31' E 139°46'0 0.1
2017-May-19 00:56N 35°31' E 139°46'0 0.0
2017-May-19 00:29N 35°31' E 139°46'0 0.1
2017-May-18 23:59N 35°31' E 139°46'3 6.0
2017-May-18 23:30N 35°29' E 139°43'3 5.5
2017-May-18 23:00N 35°28' E 139°46'2 3.7
2017-May-18 22:30N 35°29' E 139°48'0 0.0
2017-May-18 22:00N 35°29' E 139°48'0 0.0
2017-May-18 21:30N 35°29' E 139°48'0 0.0
2017-May-18 21:00N 35°29' E 139°48'0 0.0
2017-May-18 20:18N 35°29' E 139°48'0 0.0
2017-May-18 19:51N 35°29' E 139°48'0 0.0
2017-May-18 19:30N 35°29' E 139°48'0 0.0
2017-May-18 19:00N 35°29' E 139°48'0 0.0
2017-May-18 18:30N 35°29' E 139°48'0 0.0
2017-May-18 18:00N 35°29' E 139°48'0 0.0
2017-May-18 17:30N 35°29' E 139°48'0 0.0
2017-May-18 16:54N 35°29' E 139°48'0 0.0
2017-May-18 16:27N 35°29' E 139°48'0 0.0
2017-May-18 16:00N 35°29' E 139°48'0 0.0
2017-May-18 15:30N 35°29' E 139°48'0 0.0
2017-May-18 15:00N 35°29' E 139°48'0 0.1
2017-May-18 14:00N 35°29' E 139°48'0 0.0
2017-May-18 13:30N 35°29' E 139°48'0 0.0
2017-May-18 13:00N 35°29' E 139°48'0 0.0
2017-May-18 12:30N 35°29' E 139°48'0 0.0
2017-May-18 12:00N 35°29' E 139°48'0 0.0
2017-May-18 11:27N 35°29' E 139°48'0 0.0
2017-May-18 11:00N 35°29' E 139°48'0 0.0
2017-May-18 10:30N 35°29' E 139°48'0 0.0
2017-May-18 10:00N 35°29' E 139°48'0 0.0
2017-May-18 09:30N 35°29' E 139°48'0 0.1
2017-May-18 09:00N 35°29' E 139°48'4 8.6
2017-May-18 08:30N 35°30' E 139°53'713.4
2017-May-18 08:00N 35°31' E 140°01'1 2.9
2017-May-18 07:31N 35°31' E 140°03'0 0.0
2017-May-18 07:01N 35°31' E 140°03'0 0.0
2017-May-18 06:19N 35°31' E 140°03'0 0.0
2017-May-18 05:55N 35°31' E 140°03'0 0.1
2017-May-18 05:25N 35°31' E 140°02'0 0.0
2017-May-18 05:01N 35°31' E 140°02'0 0.0
2017-May-18 04:25N 35°31' E 140°02'0 0.0
2017-May-18 04:01N 35°31' E 140°02'0 0.0
2017-May-18 03:31N 35°31' E 140°02'0 0.3
2017-May-18 03:00N 35°31' E 140°02'1 1.9
2017-May-18 02:30N 35°31' E 140°01'2 0.6
2017-May-17 23:42N 35°31' E 139°59'0 0.0
2017-May-17 22:51N 35°31' E 139°59'0 0.0
2017-May-17 22:18N 35°31' E 139°59'0 0.0
2017-May-17 22:00N 35°31' E 139°59'0 0.0
2017-May-17 19:12N 35°31' E 139°59'0 0.0
2017-May-17 19:00N 35°31' E 139°59'0 0.0
2017-May-17 18:24N 35°31' E 139°59'0 0.0
2017-May-17 17:54N 35°31' E 139°59'0 0.0
2017-May-17 16:57N 35°31' E 139°59'0 0.0
2017-May-17 07:51N 35°31' E 139°59'0 0.0
2017-May-17 07:30N 35°31' E 139°59'0 0.0
2017-May-17 06:51N 35°31' E 139°59'0 0.0
2017-May-17 06:27N 35°31' E 139°59'0 0.0
2017-May-17 05:57N 35°31' E 139°59'0 0.1
2017-May-17 05:24N 35°31' E 139°59'0 0.0
2017-May-17 05:00N 35°31' E 139°59'0 0.2
2017-May-17 04:29N 35°31' E 139°59'5 9.9
2017-May-17 04:00N 35°29' E 139°54'612.8
2017-May-17 03:30N 35°25' E 139°48'612.5
2017-May-17 03:00N 35°20' E 139°44'611.9
2017-May-17 02:30N 35°14' E 139°47'  

Dump ship's entire track history